sensor_id;sensor_type;location;lat;lon;timestamp;pressure;altitude;pressure_sealevel;temperature;humidity
52319;BME280;38258;51.148;14.068;2023-04-07T00:02:10;98562.31;;;-3.54;100.00
52319;BME280;38258;51.148;14.068;2023-04-07T00:04:37;98561.31;;;-3.59;100.00
52319;BME280;38258;51.148;14.068;2023-04-07T00:07:03;98555.03;;;-3.69;100.00
52319;BME280;38258;51.148;14.068;2023-04-07T00:09:30;98566.13;;;-3.69;100.00
52319;BME280;38258;51.148;14.068;2023-04-07T00:11:57;98555.06;;;-3.67;100.00
52319;BME280;38258;51.148;14.068;2023-04-07T00:14:26;98561.22;;;-3.62;100.00
52319;BME280;38258;51.148;14.068;2023-04-07T00:16:53;98562.03;;;-3.63;100.00
52319;BME280;38258;51.148;14.068;2023-04-07T00:19:21;98553.41;;;-3.67;100.00
52319;BME280;38258;51.148;14.068;2023-04-07T00:21:48;98554.25;;;-3.66;100.00
52319;BME280;38258;51.148;14.068;2023-04-07T00:24:14;98556.03;;;-3.65;100.00
52319;BME280;38258;51.148;14.068;2023-04-07T00:26:41;98551.84;;;-3.62;100.00
52319;BME280;38258;51.148;14.068;2023-04-07T00:29:08;98547.09;;;-3.51;100.00
52319;BME280;38258;51.148;14.068;2023-04-07T00:31:35;98543.81;;;-3.45;100.00
52319;BME280;38258;51.148;14.068;2023-04-07T00:34:02;98542.13;;;-3.45;100.00
52319;BME280;38258;51.148;14.068;2023-04-07T00:36:30;98542.44;;;-3.34;100.00
52319;BME280;38258;51.148;14.068;2023-04-07T00:38:57;98540.94;;;-3.27;100.00
52319;BME280;38258;51.148;14.068;2023-04-07T00:41:24;98532.53;;;-3.23;100.00
52319;BME280;38258;51.148;14.068;2023-04-07T00:43:51;98539.97;;;-3.31;100.00
52319;BME280;38258;51.148;14.068;2023-04-07T00:46:21;98533.53;;;-3.18;100.00
52319;BME280;38258;51.148;14.068;2023-04-07T00:48:48;98530.16;;;-3.17;100.00
52319;BME280;38258;51.148;14.068;2023-04-07T00:51:15;98526.22;;;-3.05;100.00
52319;BME280;38258;51.148;14.068;2023-04-07T00:53:43;98528.13;;;-2.98;100.00
52319;BME280;38258;51.148;14.068;2023-04-07T00:56:10;98529.91;;;-2.95;100.00
52319;BME280;38258;51.148;14.068;2023-04-07T00:58:37;98525.00;;;-2.88;100.00
52319;BME280;38258;51.148;14.068;2023-04-07T01:01:08;98523.19;;;-2.92;100.00
52319;BME280;38258;51.148;14.068;2023-04-07T01:03:44;98518.16;;;-2.87;100.00
52319;BME280;38258;51.148;14.068;2023-04-07T01:06:14;98524.31;;;-2.80;100.00
52319;BME280;38258;51.148;14.068;2023-04-07T01:08:52;98513.06;;;-2.87;100.00
52319;BME280;38258;51.148;14.068;2023-04-07T01:11:23;98508.06;;;-2.82;100.00
52319;BME280;38258;51.148;14.068;2023-04-07T01:13:53;98509.84;;;-2.80;100.00
52319;BME280;38258;51.148;14.068;2023-04-07T01:16:36;98510.50;;;-2.87;100.00
52319;BME280;38258;51.148;14.068;2023-04-07T01:19:13;98513.19;;;-2.82;100.00
52319;BME280;38258;51.148;14.068;2023-04-07T01:21:45;98503.63;;;-2.88;100.00
52319;BME280;38258;51.148;14.068;2023-04-07T01:24:38;98504.31;;;-2.95;100.00
52319;BME280;38258;51.148;14.068;2023-04-07T01:27:16;98498.31;;;-2.96;100.00
52319;BME280;38258;51.148;14.068;2023-04-07T01:29:46;98482.09;;;-2.96;100.00
52319;BME280;38258;51.148;14.068;2023-04-07T01:32:17;98499.47;;;-2.85;100.00
52319;BME280;38258;51.148;14.068;2023-04-07T01:34:48;98502.22;;;-2.78;100.00
52319;BME280;38258;51.148;14.068;2023-04-07T01:37:16;98497.00;;;-2.81;100.00
52319;BME280;38258;51.148;14.068;2023-04-07T01:39:43;98484.81;;;-2.90;100.00
52319;BME280;38258;51.148;14.068;2023-04-07T01:42:11;98491.84;;;-2.83;100.00
52319;BME280;38258;51.148;14.068;2023-04-07T01:44:39;98492.53;;;-2.89;100.00
52319;BME280;38258;51.148;14.068;2023-04-07T01:47:08;98493.41;;;-2.88;100.00
52319;BME280;38258;51.148;14.068;2023-04-07T01:49:35;98493.38;;;-2.90;100.00
52319;BME280;38258;51.148;14.068;2023-04-07T01:52:04;98493.66;;;-2.79;100.00
52319;BME280;38258;51.148;14.068;2023-04-07T01:54:31;98489.91;;;-2.92;100.00
52319;BME280;38258;51.148;14.068;2023-04-07T01:56:59;98482.25;;;-2.90;100.00
52319;BME280;38258;51.148;14.068;2023-04-07T01:59:27;98490.75;;;-2.91;100.00
52319;BME280;38258;51.148;14.068;2023-04-07T02:01:55;98482.22;;;-2.92;100.00
52319;BME280;38258;51.148;14.068;2023-04-07T02:04:32;98483.13;;;-2.90;100.00
52319;BME280;38258;51.148;14.068;2023-04-07T02:07:05;98490.94;;;-2.85;100.00
52319;BME280;38258;51.148;14.068;2023-04-07T02:09:40;98487.56;;;-2.82;100.00
52319;BME280;38258;51.148;14.068;2023-04-07T02:12:11;98479.94;;;-2.81;100.00
52319;BME280;38258;51.148;14.068;2023-04-07T02:14:44;98486.84;;;-2.78;100.00
52319;BME280;38258;51.148;14.068;2023-04-07T02:17:14;98479.19;;;-2.77;100.00
52319;BME280;38258;51.148;14.068;2023-04-07T02:19:44;98477.53;;;-2.75;100.00
52319;BME280;38258;51.148;14.068;2023-04-07T02:22:12;98477.53;;;-2.75;100.00
52319;BME280;38258;51.148;14.068;2023-04-07T02:24:41;98476.00;;;-2.68;100.00
52319;BME280;38258;51.148;14.068;2023-04-07T02:27:08;98488.19;;;-2.59;100.00
52319;BME280;38258;51.148;14.068;2023-04-07T02:29:35;98480.63;;;-2.54;100.00
52319;BME280;38258;51.148;14.068;2023-04-07T02:32:02;98474.16;;;-2.40;100.00
52319;BME280;38258;51.148;14.068;2023-04-07T02:34:28;98476.78;;;-2.37;100.00
52319;BME280;38258;51.148;14.068;2023-04-07T02:36:57;98473.25;;;-2.42;100.00
52319;BME280;38258;51.148;14.068;2023-04-07T02:39:24;98474.84;;;-2.46;100.00
52319;BME280;38258;51.148;14.068;2023-04-07T02:41:50;98474.84;;;-2.47;100.00
52319;BME280;38258;51.148;14.068;2023-04-07T02:44:17;98470.63;;;-2.45;100.00
52319;BME280;38258;51.148;14.068;2023-04-07T02:46:44;98477.41;;;-2.47;100.00
52319;BME280;38258;51.148;14.068;2023-04-07T02:49:11;98477.59;;;-2.39;100.00
52319;BME280;38258;51.148;14.068;2023-04-07T02:51:38;98469.91;;;-2.39;100.00
52319;BME280;38258;51.148;14.068;2023-04-07T02:54:06;98466.63;;;-2.34;100.00
52319;BME280;38258;51.148;14.068;2023-04-07T02:56:33;98467.22;;;-2.44;100.00
52319;BME280;38258;51.148;14.068;2023-04-07T02:59:00;98458.38;;;-2.57;100.00
52319;BME280;38258;51.148;14.068;2023-04-07T03:01:28;98461.09;;;-2.51;100.00
52319;BME280;38258;51.148;14.068;2023-04-07T03:03:55;98461.03;;;-2.52;100.00
52319;BME280;38258;51.148;14.068;2023-04-07T03:06:23;98460.88;;;-2.59;100.00
52319;BME280;38258;51.148;14.068;2023-04-07T03:09:01;98453.22;;;-2.59;100.00
52319;BME280;38258;51.148;14.068;2023-04-07T03:11:29;98452.88;;;-2.71;100.00
52319;BME280;38258;51.148;14.068;2023-04-07T03:13:58;98452.75;;;-2.77;100.00
52319;BME280;38258;51.148;14.068;2023-04-07T03:16:27;98457.22;;;-2.68;100.00
52319;BME280;38258;51.148;14.068;2023-04-07T03:19:06;98452.81;;;-2.74;100.00
52319;BME280;38258;51.148;14.068;2023-04-07T03:21:37;98419.00;;;-2.94;100.00
52319;BME280;38258;51.148;14.068;2023-04-07T03:24:05;98445.78;;;-2.83;100.00
52319;BME280;38258;51.148;14.068;2023-04-07T03:26:33;98439.63;;;-2.88;100.00
52319;BME280;38258;51.148;14.068;2023-04-07T03:29:02;98432.47;;;-3.02;100.00
52319;BME280;38258;51.148;14.068;2023-04-07T03:31:31;98434.81;;;-3.09;100.00
52319;BME280;38258;51.148;14.068;2023-04-07T03:33:57;98439.84;;;-3.14;100.00
52319;BME280;38258;51.148;14.068;2023-04-07T03:36:24;98448.28;;;-3.17;100.00
52319;BME280;38258;51.148;14.068;2023-04-07T03:38:54;98440.41;;;-3.24;100.00
52319;BME280;38258;51.148;14.068;2023-04-07T03:41:21;98439.50;;;-3.27;100.00
52319;BME280;38258;51.148;14.068;2023-04-07T03:43:49;98440.00;;;-3.38;100.00
52319;BME280;38258;51.148;14.068;2023-04-07T03:46:18;98436.63;;;-3.37;100.00
52319;BME280;38258;51.148;14.068;2023-04-07T03:48:44;98432.66;;;-3.28;100.00
52319;BME280;38258;51.148;14.068;2023-04-07T03:51:12;98430.72;;;-3.36;100.00
52319;BME280;38258;51.148;14.068;2023-04-07T03:53:39;98434.84;;;-3.40;100.00
52319;BME280;38258;51.148;14.068;2023-04-07T03:56:26;98425.66;;;-3.33;100.00
52319;BME280;38258;51.148;14.068;2023-04-07T03:58:55;98439.19;;;-3.37;100.00
52319;BME280;38258;51.148;14.068;2023-04-07T04:01:28;98414.25;;;-3.45;100.00
52319;BME280;38258;51.148;14.068;2023-04-07T04:03:59;98441.34;;;-3.21;100.00
52319;BME280;38258;51.148;14.068;2023-04-07T04:06:28;98428.31;;;-3.30;100.00
52319;BME280;38258;51.148;14.068;2023-04-07T04:09:18;98441.72;;;-3.37;100.00
52319;BME280;38258;51.148;14.068;2023-04-07T04:11:47;98440.66;;;-3.46;100.00
52319;BME280;38258;51.148;14.068;2023-04-07T04:14:16;98441.28;;;-3.55;100.00
52319;BME280;38258;51.148;14.068;2023-04-07T04:16:52;98436.94;;;-3.57;100.00
52319;BME280;38258;51.148;14.068;2023-04-07T04:19:25;98436.84;;;-3.60;100.00
52319;BME280;38258;51.148;14.068;2023-04-07T04:21:54;98435.41;;;-3.50;100.00
52319;BME280;38258;51.148;14.068;2023-04-07T04:24:21;98438.94;;;-3.47;100.00
52319;BME280;38258;51.148;14.068;2023-04-07T04:26:48;98443.84;;;-3.55;100.00
52319;BME280;38258;51.148;14.068;2023-04-07T04:29:16;98440.38;;;-3.55;100.00
52319;BME280;38258;51.148;14.068;2023-04-07T04:31:44;98441.06;;;-3.62;100.00
52319;BME280;38258;51.148;14.068;2023-04-07T04:34:11;98443.75;;;-3.58;100.00
52319;BME280;38258;51.148;14.068;2023-04-07T04:36:39;98436.94;;;-3.57;100.00
52319;BME280;38258;51.148;14.068;2023-04-07T04:39:06;98434.16;;;-3.65;100.00
52319;BME280;38258;51.148;14.068;2023-04-07T04:41:34;98427.59;;;-3.57;100.00
52319;BME280;38258;51.148;14.068;2023-04-07T04:44:01;98431.91;;;-3.54;100.00
52319;BME280;38258;51.148;14.068;2023-04-07T04:46:31;98439.09;;;-3.41;100.00
52319;BME280;38258;51.148;14.068;2023-04-07T04:48:58;98433.06;;;-3.44;100.00
52319;BME280;38258;51.148;14.068;2023-04-07T04:51:25;98430.03;;;-3.29;100.00
52319;BME280;38258;51.148;14.068;2023-04-07T04:53:58;98428.59;;;-3.19;100.00
52319;BME280;38258;51.148;14.068;2023-04-07T04:56:26;98433.78;;;-3.16;100.00
52319;BME280;38258;51.148;14.068;2023-04-07T04:58:53;98435.56;;;-3.14;100.00
52319;BME280;38258;51.148;14.068;2023-04-07T05:01:33;98431.63;;;-3.02;100.00
52319;BME280;38258;51.148;14.068;2023-04-07T05:04:07;98427.56;;;-2.94;100.00
52319;BME280;38258;51.148;14.068;2023-04-07T05:06:35;98429.50;;;-2.85;100.00
52319;BME280;38258;51.148;14.068;2023-04-07T05:09:07;98435.91;;;-2.67;100.00
52319;BME280;38258;51.148;14.068;2023-04-07T05:11:41;98432.84;;;-2.52;100.00
52319;BME280;38258;51.148;14.068;2023-04-07T05:14:08;98432.25;;;-2.42;100.00
52319;BME280;38258;51.148;14.068;2023-04-07T05:16:43;98426.50;;;-2.33;100.00
52319;BME280;38258;51.148;14.068;2023-04-07T05:19:15;98434.41;;;-2.24;100.00
52319;BME280;38258;51.148;14.068;2023-04-07T05:21:42;98425.63;;;-2.34;100.00
52319;BME280;38258;51.148;14.068;2023-04-07T05:24:10;98425.94;;;-2.21;100.00
52319;BME280;38258;51.148;14.068;2023-04-07T05:26:37;98430.75;;;-1.95;100.00
52319;BME280;38258;51.148;14.068;2023-04-07T05:29:04;98411.47;;;-1.79;100.00
52319;BME280;38258;51.148;14.068;2023-04-07T05:31:31;98421.38;;;-1.55;100.00
52319;BME280;38258;51.148;14.068;2023-04-07T05:34:03;98418.97;;;-1.47;100.00
52319;BME280;38258;51.148;14.068;2023-04-07T05:36:35;98420.63;;;-1.49;100.00
52319;BME280;38258;51.148;14.068;2023-04-07T05:39:01;98319.47;;;-2.05;100.00
52319;BME280;38258;51.148;14.068;2023-04-07T05:41:28;98282.66;;;-2.10;100.00
52319;BME280;38258;51.148;14.068;2023-04-07T05:43:55;98388.22;;;-1.46;100.00
52319;BME280;38258;51.148;14.068;2023-04-07T05:46:22;98297.25;;;-2.08;100.00
52319;BME280;38258;51.148;14.068;2023-04-07T05:48:54;98430.81;;;-1.09;100.00
52319;BME280;38258;51.148;14.068;2023-04-07T05:51:24;98365.47;;;-1.27;100.00
52319;BME280;38258;51.148;14.068;2023-04-07T05:53:53;98338.66;;;-0.95;100.00
52319;BME280;38258;51.148;14.068;2023-04-07T05:56:22;98428.75;;;-0.31;100.00
52319;BME280;38258;51.148;14.068;2023-04-07T05:58:49;98305.22;;;-0.98;100.00
52319;BME280;38258;51.148;14.068;2023-04-07T06:01:17;98290.53;;;-1.07;100.00
52319;BME280;38258;51.148;14.068;2023-04-07T06:03:44;98363.47;;;-0.42;100.00
52319;BME280;38258;51.148;14.068;2023-04-07T06:06:24;98430.25;;;0.12;100.00
52319;BME280;38258;51.148;14.068;2023-04-07T06:08:52;98320.66;;;-0.40;100.00
52319;BME280;38258;51.148;14.068;2023-04-07T06:11:21;98414.13;;;0.22;100.00
52319;BME280;38258;51.148;14.068;2023-04-07T06:13:48;98362.66;;;0.22;100.00
52319;BME280;38258;51.148;14.068;2023-04-07T06:16:15;98364.38;;;0.23;100.00
52319;BME280;38258;51.148;14.068;2023-04-07T06:18:41;98321.41;;;0.16;100.00
52319;BME280;38258;51.148;14.068;2023-04-07T06:21:08;98396.84;;;0.86;100.00
52319;BME280;38258;51.148;14.068;2023-04-07T06:23:39;98424.88;;;1.41;100.00
52319;BME280;38258;51.148;14.068;2023-04-07T06:26:09;98372.34;;;1.27;100.00
52319;BME280;38258;51.148;14.068;2023-04-07T06:28:35;98347.47;;;1.32;100.00
52319;BME280;38258;51.148;14.068;2023-04-07T06:31:02;98387.09;;;1.47;100.00
52319;BME280;38258;51.148;14.068;2023-04-07T06:33:30;98318.97;;;1.10;100.00
52319;BME280;38258;51.148;14.068;2023-04-07T06:35:59;98390.56;;;1.47;100.00
52319;BME280;38258;51.148;14.068;2023-04-07T06:38:27;98420.03;;;1.80;100.00
52319;BME280;38258;51.148;14.068;2023-04-07T06:40:58;98390.13;;;2.09;100.00
52319;BME280;38258;51.148;14.068;2023-04-07T06:43:25;98371.16;;;2.04;100.00
52319;BME280;38258;51.148;14.068;2023-04-07T06:46:00;98411.81;;;2.45;100.00
52319;BME280;38258;51.148;14.068;2023-04-07T06:48:26;98398.06;;;2.45;100.00
52319;BME280;38258;51.148;14.068;2023-04-07T06:50:53;98373.19;;;2.67;100.00
52319;BME280;38258;51.148;14.068;2023-04-07T06:53:20;98403.41;;;3.02;100.00
52319;BME280;38258;51.148;14.068;2023-04-07T06:55:46;98402.50;;;2.94;100.00
52319;BME280;38258;51.148;14.068;2023-04-07T06:58:14;98378.44;;;3.01;100.00
52319;BME280;38258;51.148;14.068;2023-04-07T07:00:41;98388.78;;;3.15;100.00
52319;BME280;38258;51.148;14.068;2023-04-07T07:03:07;98417.25;;;3.42;100.00
52319;BME280;38258;51.148;14.068;2023-04-07T07:05:34;98358.63;;;3.59;100.00
52319;BME280;38258;51.148;14.068;2023-04-07T07:08:01;98384.47;;;3.87;100.00
52319;BME280;38258;51.148;14.068;2023-04-07T07:10:28;98371.47;;;4.24;100.00
52319;BME280;38258;51.148;14.068;2023-04-07T07:12:54;98387.84;;;4.28;80.44
52319;BME280;38258;51.148;14.068;2023-04-07T07:15:22;98410.16;;;4.68;78.64
52319;BME280;38258;51.148;14.068;2023-04-07T07:17:49;98409.28;;;4.66;69.79
52319;BME280;38258;51.148;14.068;2023-04-07T07:20:16;98420.56;;;4.59;67.83
52319;BME280;38258;51.148;14.068;2023-04-07T07:22:42;98418.78;;;4.70;65.91
52319;BME280;38258;51.148;14.068;2023-04-07T07:25:09;98417.06;;;4.67;66.64
52319;BME280;38258;51.148;14.068;2023-04-07T07:27:35;98387.78;;;4.47;68.06
52319;BME280;38258;51.148;14.068;2023-04-07T07:30:03;98422.25;;;4.67;65.59
52319;BME280;38258;51.148;14.068;2023-04-07T07:32:31;98417.13;;;4.50;68.46
52319;BME280;38258;51.148;14.068;2023-04-07T07:34:58;98435.25;;;4.50;67.72
52319;BME280;38258;51.148;14.068;2023-04-07T07:37:24;98432.59;;;4.67;68.93
52319;BME280;38258;51.148;14.068;2023-04-07T07:39:52;98372.31;;;4.28;66.74
52319;BME280;38258;51.148;14.068;2023-04-07T07:42:19;98432.56;;;4.80;67.43
52319;BME280;38258;51.148;14.068;2023-04-07T07:44:45;98438.56;;;4.85;65.47
52319;BME280;38258;51.148;14.068;2023-04-07T07:47:12;98433.44;;;4.73;67.52
52319;BME280;38258;51.148;14.068;2023-04-07T07:49:40;98433.47;;;4.71;67.11
52319;BME280;38258;51.148;14.068;2023-04-07T07:52:07;98440.38;;;4.74;65.88
52319;BME280;38258;51.148;14.068;2023-04-07T07:54:33;98430.72;;;5.04;68.14
52319;BME280;38258;51.148;14.068;2023-04-07T07:57:00;98443.66;;;5.05;65.74
52319;BME280;38258;51.148;14.068;2023-04-07T07:59:27;98441.97;;;5.01;68.15
52319;BME280;38258;51.148;14.068;2023-04-07T08:01:54;98443.63;;;5.15;68.65
52319;BME280;38258;51.148;14.068;2023-04-07T08:04:20;98440.25;;;5.00;65.25
52319;BME280;38258;51.148;14.068;2023-04-07T08:06:49;98451.53;;;4.87;71.56
52319;BME280;38258;51.148;14.068;2023-04-07T08:09:16;98457.56;;;4.92;65.89
52319;BME280;38258;51.148;14.068;2023-04-07T08:11:43;98450.78;;;4.52;63.76
52319;BME280;38258;51.148;14.068;2023-04-07T08:14:09;98462.84;;;4.69;68.45
52319;BME280;38258;51.148;14.068;2023-04-07T08:16:36;98443.03;;;4.44;69.86
52319;BME280;38258;51.148;14.068;2023-04-07T08:19:03;98422.22;;;4.72;72.84
52319;BME280;38258;51.148;14.068;2023-04-07T08:21:29;98452.44;;;4.78;68.36
52319;BME280;38258;51.148;14.068;2023-04-07T08:23:57;98464.56;;;4.62;70.06
52319;BME280;38258;51.148;14.068;2023-04-07T08:26:25;98461.00;;;4.94;67.98
52319;BME280;38258;51.148;14.068;2023-04-07T08:28:52;98466.41;;;4.26;71.19
52319;BME280;38258;51.148;14.068;2023-04-07T08:31:20;98462.94;;;4.33;73.21
52319;BME280;38258;51.148;14.068;2023-04-07T08:33:47;98465.47;;;4.59;72.05
52319;BME280;38258;51.148;14.068;2023-04-07T08:36:17;98467.22;;;4.52;66.92
52319;BME280;38258;51.148;14.068;2023-04-07T08:38:44;98472.38;;;4.51;66.10
52319;BME280;38258;51.148;14.068;2023-04-07T08:41:16;98467.94;;;4.87;68.96
52319;BME280;38258;51.148;14.068;2023-04-07T08:43:43;98458.34;;;5.13;66.27
52319;BME280;38258;51.148;14.068;2023-04-07T08:46:11;98451.47;;;5.01;64.01
52319;BME280;38258;51.148;14.068;2023-04-07T08:48:40;98467.50;;;5.66;63.04
52319;BME280;38258;51.148;14.068;2023-04-07T08:51:12;98462.28;;;5.74;66.05
52319;BME280;38258;51.148;14.068;2023-04-07T08:53:43;98463.25;;;5.56;61.69
52319;BME280;38258;51.148;14.068;2023-04-07T08:56:16;98458.69;;;5.91;66.12
52319;BME280;38258;51.148;14.068;2023-04-07T08:58:45;98457.50;;;5.11;68.59
52319;BME280;38258;51.148;14.068;2023-04-07T09:01:12;98423.00;;;4.91;76.69
52319;BME280;38258;51.148;14.068;2023-04-07T09:03:41;98452.81;;;5.65;74.28
52319;BME280;38258;51.148;14.068;2023-04-07T09:06:09;98450.94;;;5.86;63.39
52319;BME280;38258;51.148;14.068;2023-04-07T09:08:36;98468.13;;;6.04;62.57
52319;BME280;38258;51.148;14.068;2023-04-07T09:11:03;98455.59;;;6.44;65.08
52319;BME280;38258;51.148;14.068;2023-04-07T09:13:31;98443.41;;;6.50;62.86
52319;BME280;38258;51.148;14.068;2023-04-07T09:15:58;98449.84;;;6.93;63.18
52319;BME280;38258;51.148;14.068;2023-04-07T09:18:27;98463.53;;;5.13;64.81
52319;BME280;38258;51.148;14.068;2023-04-07T09:20:58;98465.84;;;5.59;68.39
52319;BME280;38258;51.148;14.068;2023-04-07T09:23:30;98468.34;;;5.72;68.65
52319;BME280;38258;51.148;14.068;2023-04-07T09:25:57;98458.06;;;5.55;72.77
52319;BME280;38258;51.148;14.068;2023-04-07T09:28:38;98464.13;;;5.52;75.41
52319;BME280;38258;51.148;14.068;2023-04-07T09:31:05;98454.88;;;6.29;79.92
52319;BME280;38258;51.148;14.068;2023-04-07T09:33:32;98443.66;;;6.27;70.13
52319;BME280;38258;51.148;14.068;2023-04-07T09:35:59;98414.97;;;6.38;72.12
52319;BME280;38258;51.148;14.068;2023-04-07T09:38:32;98440.53;;;6.77;73.38
52319;BME280;38258;51.148;14.068;2023-04-07T09:41:07;98422.41;;;7.35;68.38
52319;BME280;38258;51.148;14.068;2023-04-07T09:43:35;98435.84;;;7.04;65.89
52319;BME280;38258;51.148;14.068;2023-04-07T09:46:09;98421.59;;;7.31;68.81
52319;BME280;38258;51.148;14.068;2023-04-07T09:48:36;98434.94;;;7.08;60.74
52319;BME280;38258;51.148;14.068;2023-04-07T09:51:05;98436.03;;;7.51;59.02
52319;BME280;38258;51.148;14.068;2023-04-07T09:53:44;98431.34;;;7.15;59.66
52319;BME280;38258;51.148;14.068;2023-04-07T09:56:12;98398.63;;;7.00;60.55
52319;BME280;38258;51.148;14.068;2023-04-07T09:58:40;98425.63;;;6.90;56.66
52319;BME280;38258;51.148;14.068;2023-04-07T10:01:10;98407.47;;;6.85;59.83
52319;BME280;38258;51.148;14.068;2023-04-07T10:03:37;98380.16;;;6.55;61.33
52319;BME280;38258;51.148;14.068;2023-04-07T10:06:04;98442.34;;;6.70;57.21
52319;BME280;38258;51.148;14.068;2023-04-07T10:08:33;98414.03;;;6.45;59.12
52319;BME280;38258;51.148;14.068;2023-04-07T10:11:01;98442.84;;;7.00;60.85
52319;BME280;38258;51.148;14.068;2023-04-07T10:13:32;98438.25;;;6.47;60.05
52319;BME280;38258;51.148;14.068;2023-04-07T10:16:02;98436.81;;;6.95;63.34
52319;BME280;38258;51.148;14.068;2023-04-07T10:18:31;98440.63;;;6.68;58.84
52319;BME280;38258;51.148;14.068;2023-04-07T10:21:03;98437.72;;;6.92;57.49
52319;BME280;38258;51.148;14.068;2023-04-07T10:23:40;98433.53;;;6.81;55.77
52319;BME280;38258;51.148;14.068;2023-04-07T10:26:14;98402.00;;;7.05;54.47
52319;BME280;38258;51.148;14.068;2023-04-07T10:28:43;98445.97;;;7.26;53.96
52319;BME280;38258;51.148;14.068;2023-04-07T10:31:12;98439.16;;;7.17;55.37
52319;BME280;38258;51.148;14.068;2023-04-07T10:33:48;98437.44;;;7.14;57.01
52319;BME280;38258;51.148;14.068;2023-04-07T10:36:16;98434.50;;;6.75;57.53
52319;BME280;38258;51.148;14.068;2023-04-07T10:39:18;98433.84;;;7.23;57.27
52319;BME280;38258;51.148;14.068;2023-04-07T10:41:45;98395.50;;;6.72;52.73
52319;BME280;38258;51.148;14.068;2023-04-07T10:44:45;98420.38;;;6.95;52.20
52319;BME280;38258;51.148;14.068;2023-04-07T10:47:14;98382.84;;;7.69;52.12
52319;BME280;38258;51.148;14.068;2023-04-07T10:50:15;98438.59;;;7.56;51.05
52319;BME280;38258;51.148;14.068;2023-04-07T10:52:43;98443.91;;;7.49;53.30
52319;BME280;38258;51.148;14.068;2023-04-07T10:55:34;98399.00;;;7.35;52.82
52319;BME280;38258;51.148;14.068;2023-04-07T10:58:14;98435.84;;;7.65;52.53
52319;BME280;38258;51.148;14.068;2023-04-07T11:00:42;98427.19;;;7.63;52.99
52319;BME280;38258;51.148;14.068;2023-04-07T11:03:10;98420.94;;;7.73;51.48
52319;BME280;38258;51.148;14.068;2023-04-07T11:05:40;98436.03;;;7.54;52.28
52319;BME280;38258;51.148;14.068;2023-04-07T11:08:06;98437.03;;;7.42;52.25
52319;BME280;38258;51.148;14.068;2023-04-07T11:10:34;98430.56;;;7.08;52.42
52319;BME280;38258;51.148;14.068;2023-04-07T11:13:05;98425.16;;;7.26;53.73
52319;BME280;38258;51.148;14.068;2023-04-07T11:15:32;98424.38;;;7.19;54.22
52319;BME280;38258;51.148;14.068;2023-04-07T11:18:16;98431.25;;;7.23;54.38
52319;BME280;38258;51.148;14.068;2023-04-07T11:20:46;98424.91;;;7.43;55.11
52319;BME280;38258;51.148;14.068;2023-04-07T11:23:14;98257.81;;;6.00;56.14
52319;BME280;38258;51.148;14.068;2023-04-07T11:25:43;98413.75;;;7.89;57.66
52319;BME280;38258;51.148;14.068;2023-04-07T11:28:11;98417.38;;;7.79;54.95
52319;BME280;38258;51.148;14.068;2023-04-07T11:30:44;98423.34;;;7.87;54.20
52319;BME280;38258;51.148;14.068;2023-04-07T11:33:14;98427.25;;;6.99;57.44
52319;BME280;38258;51.148;14.068;2023-04-07T11:35:48;98428.28;;;6.87;58.44
52319;BME280;38258;51.148;14.068;2023-04-07T11:38:15;98313.81;;;6.24;59.37
52319;BME280;38258;51.148;14.068;2023-04-07T11:40:42;98425.94;;;6.63;60.45
52319;BME280;38258;51.148;14.068;2023-04-07T11:43:17;98429.84;;;6.99;61.38
52319;BME280;38258;51.148;14.068;2023-04-07T11:45:44;98427.00;;;6.47;62.41
52319;BME280;38258;51.148;14.068;2023-04-07T11:48:28;98415.53;;;6.65;62.44
52319;BME280;38258;51.148;14.068;2023-04-07T11:50:56;98427.97;;;7.10;61.78
52319;BME280;38258;51.148;14.068;2023-04-07T11:53:24;98425.72;;;6.82;61.97
52319;BME280;38258;51.148;14.068;2023-04-07T11:55:59;98435.41;;;6.69;62.54
52319;BME280;38258;51.148;14.068;2023-04-07T11:58:26;98429.94;;;6.91;61.08
52319;BME280;38258;51.148;14.068;2023-04-07T12:00:53;98429.41;;;7.33;60.61
52319;BME280;38258;51.148;14.068;2023-04-07T12:03:20;98435.41;;;6.69;62.60
52319;BME280;38258;51.148;14.068;2023-04-07T12:05:48;98435.41;;;6.69;64.04
52319;BME280;38258;51.148;14.068;2023-04-07T12:08:16;98436.41;;;6.60;62.19
52319;BME280;38258;51.148;14.068;2023-04-07T12:10:44;98438.13;;;6.60;62.53
52319;BME280;38258;51.148;14.068;2023-04-07T12:13:12;98435.13;;;6.92;61.97
52319;BME280;38258;51.148;14.068;2023-04-07T12:15:39;98435.38;;;6.71;61.18
52319;BME280;38258;51.148;14.068;2023-04-07T12:18:06;98436.81;;;6.95;62.23
52319;BME280;38258;51.148;14.068;2023-04-07T12:20:33;98424.69;;;6.97;62.79
52319;BME280;38258;51.148;14.068;2023-04-07T12:23:00;98434.16;;;7.00;61.57
52319;BME280;38258;51.148;14.068;2023-04-07T12:25:29;98425.03;;;6.68;59.69
52319;BME280;38258;51.148;14.068;2023-04-07T12:27:55;98423.84;;;6.93;63.01
52319;BME280;38258;51.148;14.068;2023-04-07T12:30:22;98432.22;;;7.16;60.72
52319;BME280;38258;51.148;14.068;2023-04-07T12:32:49;98428.31;;;6.84;61.98
52319;BME280;38258;51.148;14.068;2023-04-07T12:35:16;98430.31;;;6.61;60.25
52319;BME280;38258;51.148;14.068;2023-04-07T12:37:43;98426.59;;;6.79;63.50
52319;BME280;38258;51.148;14.068;2023-04-07T12:40:11;98430.09;;;6.80;63.76
52319;BME280;38258;51.148;14.068;2023-04-07T12:42:39;98435.03;;;6.99;64.20
52319;BME280;38258;51.148;14.068;2023-04-07T12:45:07;98424.72;;;6.92;63.56
52319;BME280;38258;51.148;14.068;2023-04-07T12:47:34;98429.28;;;6.75;62.53
52319;BME280;38258;51.148;14.068;2023-04-07T12:50:00;98426.00;;;6.57;63.99
52319;BME280;38258;51.148;14.068;2023-04-07T12:52:28;98430.38;;;6.57;62.70
52319;BME280;38258;51.148;14.068;2023-04-07T12:54:55;98424.00;;;6.79;63.83
52319;BME280;38258;51.148;14.068;2023-04-07T12:57:23;98429.44;;;6.62;61.63
52319;BME280;38258;51.148;14.068;2023-04-07T12:59:51;98434.50;;;6.75;60.05
52319;BME280;38258;51.148;14.068;2023-04-07T13:02:18;98430.34;;;7.27;58.42